sensor_id;sensor_type;location;lat;lon;timestamp;P1;durP1;ratioP1;P2;durP2;ratioP2
23302;SDS011;11820;48.738;9.092;2024-02-21T00:01:23;9.70;;;3.17;;
23302;SDS011;11820;48.738;9.092;2024-02-21T00:03:49;9.30;;;3.67;;
23302;SDS011;11820;48.738;9.092;2024-02-21T00:06:14;14.40;;;4.20;;
23302;SDS011;11820;48.738;9.092;2024-02-21T00:08:39;10.03;;;3.07;;
23302;SDS011;11820;48.738;9.092;2024-02-21T00:11:05;8.37;;;3.70;;
23302;SDS011;11820;48.738;9.092;2024-02-21T00:13:30;9.40;;;3.30;;
23302;SDS011;11820;48.738;9.092;2024-02-21T00:15:56;6.77;;;3.07;;
23302;SDS011;11820;48.738;9.092;2024-02-21T00:18:21;11.43;;;3.33;;
23302;SDS011;11820;48.738;9.092;2024-02-21T00:20:46;10.60;;;3.90;;
23302;SDS011;11820;48.738;9.092;2024-02-21T00:23:12;12.07;;;3.97;;
23302;SDS011;11820;48.738;9.092;2024-02-21T00:25:37;9.90;;;3.73;;
23302;SDS011;11820;48.738;9.092;2024-02-21T00:28:03;10.97;;;4.30;;
23302;SDS011;11820;48.738;9.092;2024-02-21T00:30:28;11.97;;;4.07;;
23302;SDS011;11820;48.738;9.092;2024-02-21T00:32:53;8.77;;;3.30;;
23302;SDS011;11820;48.738;9.092;2024-02-21T00:35:19;8.57;;;3.20;;
23302;SDS011;11820;48.738;9.092;2024-02-21T00:37:44;9.07;;;2.83;;
23302;SDS011;11820;48.738;9.092;2024-02-21T00:40:10;7.63;;;3.50;;
23302;SDS011;11820;48.738;9.092;2024-02-21T00:42:35;10.17;;;3.20;;
23302;SDS011;11820;48.738;9.092;2024-02-21T00:45:01;7.27;;;3.13;;
23302;SDS011;11820;48.738;9.092;2024-02-21T00:47:26;9.43;;;3.80;;
23302;SDS011;11820;48.738;9.092;2024-02-21T00:49:51;7.93;;;3.67;;
23302;SDS011;11820;48.738;9.092;2024-02-21T00:52:17;10.63;;;3.37;;
23302;SDS011;11820;48.738;9.092;2024-02-21T00:54:43;12.73;;;3.13;;
23302;SDS011;11820;48.738;9.092;2024-02-21T00:57:08;9.93;;;3.63;;
23302;SDS011;11820;48.738;9.092;2024-02-21T00:59:33;11.73;;;3.53;;
23302;SDS011;11820;48.738;9.092;2024-02-21T01:01:58;10.63;;;3.87;;
23302;SDS011;11820;48.738;9.092;2024-02-21T01:04:24;6.60;;;3.20;;
23302;SDS011;11820;48.738;9.092;2024-02-21T01:06:49;8.47;;;3.23;;
23302;SDS011;11820;48.738;9.092;2024-02-21T01:09:15;10.77;;;3.40;;
23302;SDS011;11820;48.738;9.092;2024-02-21T01:11:40;8.07;;;2.70;;
23302;SDS011;11820;48.738;9.092;2024-02-21T01:14:05;6.33;;;3.40;;
23302;SDS011;11820;48.738;9.092;2024-02-21T01:16:31;5.90;;;2.80;;
23302;SDS011;11820;48.738;9.092;2024-02-21T01:18:56;8.83;;;3.13;;
23302;SDS011;11820;48.738;9.092;2024-02-21T01:21:21;8.00;;;3.23;;
23302;SDS011;11820;48.738;9.092;2024-02-21T01:23:47;7.47;;;2.83;;
23302;SDS011;11820;48.738;9.092;2024-02-21T01:26:12;12.53;;;3.30;;
23302;SDS011;11820;48.738;9.092;2024-02-21T01:28:40;6.73;;;2.57;;
23302;SDS011;11820;48.738;9.092;2024-02-21T01:31:06;12.97;;;3.07;;
23302;SDS011;11820;48.738;9.092;2024-02-21T01:33:31;7.53;;;2.83;;
23302;SDS011;11820;48.738;9.092;2024-02-21T01:36:06;8.10;;;2.63;;
23302;SDS011;11820;48.738;9.092;2024-02-21T01:38:32;9.03;;;2.87;;
23302;SDS011;11820;48.738;9.092;2024-02-21T01:40:57;11.60;;;3.33;;
23302;SDS011;11820;48.738;9.092;2024-02-21T01:43:23;5.33;;;2.50;;
23302;SDS011;11820;48.738;9.092;2024-02-21T01:45:49;7.73;;;2.80;;
23302;SDS011;11820;48.738;9.092;2024-02-21T01:48:17;6.10;;;2.73;;
23302;SDS011;11820;48.738;9.092;2024-02-21T01:50:44;6.00;;;2.80;;
23302;SDS011;11820;48.738;9.092;2024-02-21T01:53:10;6.97;;;3.13;;
23302;SDS011;11820;48.738;9.092;2024-02-21T01:55:42;7.57;;;3.00;;
23302;SDS011;11820;48.738;9.092;2024-02-21T01:58:08;7.33;;;2.57;;
23302;SDS011;11820;48.738;9.092;2024-02-21T02:00:34;9.37;;;2.60;;
23302;SDS011;11820;48.738;9.092;2024-02-21T02:03:00;5.43;;;2.40;;
23302;SDS011;11820;48.738;9.092;2024-02-21T02:05:26;8.30;;;2.83;;
23302;SDS011;11820;48.738;9.092;2024-02-21T02:07:52;10.13;;;2.80;;
23302;SDS011;11820;48.738;9.092;2024-02-21T02:10:17;3.90;;;2.30;;
23302;SDS011;11820;48.738;9.092;2024-02-21T02:12:42;10.33;;;2.73;;
23302;SDS011;11820;48.738;9.092;2024-02-21T02:15:08;9.17;;;2.90;;
23302;SDS011;11820;48.738;9.092;2024-02-21T02:17:33;6.93;;;2.87;;
23302;SDS011;11820;48.738;9.092;2024-02-21T02:19:58;8.07;;;2.73;;
23302;SDS011;11820;48.738;9.092;2024-02-21T02:22:27;8.37;;;2.70;;
23302;SDS011;11820;48.738;9.092;2024-02-21T02:24:53;7.50;;;2.63;;
23302;SDS011;11820;48.738;9.092;2024-02-21T02:27:19;5.93;;;2.57;;
23302;SDS011;11820;48.738;9.092;2024-02-21T02:29:45;9.10;;;2.43;;
23302;SDS011;11820;48.738;9.092;2024-02-21T02:32:10;9.27;;;2.77;;
23302;SDS011;11820;48.738;9.092;2024-02-21T02:34:36;8.87;;;2.43;;
23302;SDS011;11820;48.738;9.092;2024-02-21T02:37:01;5.60;;;2.43;;
23302;SDS011;11820;48.738;9.092;2024-02-21T02:39:26;8.07;;;3.03;;
23302;SDS011;11820;48.738;9.092;2024-02-21T02:41:51;6.47;;;2.60;;
23302;SDS011;11820;48.738;9.092;2024-02-21T02:44:17;11.17;;;3.10;;
23302;SDS011;11820;48.738;9.092;2024-02-21T02:46:42;7.10;;;3.10;;
23302;SDS011;11820;48.738;9.092;2024-02-21T02:49:08;7.10;;;2.73;;
23302;SDS011;11820;48.738;9.092;2024-02-21T02:51:33;8.60;;;3.13;;
23302;SDS011;11820;48.738;9.092;2024-02-21T02:53:59;8.90;;;2.90;;
23302;SDS011;11820;48.738;9.092;2024-02-21T02:56:24;8.20;;;3.40;;
23302;SDS011;11820;48.738;9.092;2024-02-21T02:58:49;12.90;;;2.97;;
23302;SDS011;11820;48.738;9.092;2024-02-21T03:01:14;9.07;;;2.33;;
23302;SDS011;11820;48.738;9.092;2024-02-21T03:03:40;6.50;;;2.80;;
23302;SDS011;11820;48.738;9.092;2024-02-21T03:06:05;6.47;;;3.20;;
23302;SDS011;11820;48.738;9.092;2024-02-21T03:08:31;9.43;;;3.13;;
23302;SDS011;11820;48.738;9.092;2024-02-21T03:10:57;6.60;;;2.60;;
23302;SDS011;11820;48.738;9.092;2024-02-21T03:13:22;11.00;;;3.60;;
23302;SDS011;11820;48.738;9.092;2024-02-21T03:15:48;7.57;;;2.77;;
23302;SDS011;11820;48.738;9.092;2024-02-21T03:18:13;5.20;;;3.00;;
23302;SDS011;11820;48.738;9.092;2024-02-21T03:20:38;6.00;;;3.33;;
23302;SDS011;11820;48.738;9.092;2024-02-21T03:23:04;6.37;;;3.10;;
23302;SDS011;11820;48.738;9.092;2024-02-21T03:25:29;11.77;;;3.73;;
23302;SDS011;11820;48.738;9.092;2024-02-21T03:27:54;6.37;;;2.80;;
23302;SDS011;11820;48.738;9.092;2024-02-21T03:30:20;6.50;;;2.67;;
23302;SDS011;11820;48.738;9.092;2024-02-21T03:32:45;8.53;;;2.77;;
23302;SDS011;11820;48.738;9.092;2024-02-21T03:35:11;6.13;;;3.13;;
23302;SDS011;11820;48.738;9.092;2024-02-21T03:37:36;15.70;;;4.13;;
23302;SDS011;11820;48.738;9.092;2024-02-21T03:40:01;5.07;;;2.40;;
23302;SDS011;11820;48.738;9.092;2024-02-21T03:42:27;7.97;;;3.10;;
23302;SDS011;11820;48.738;9.092;2024-02-21T03:44:54;5.93;;;2.70;;
23302;SDS011;11820;48.738;9.092;2024-02-21T03:47:20;13.43;;;3.03;;
23302;SDS011;11820;48.738;9.092;2024-02-21T03:49:45;7.63;;;2.70;;
23302;SDS011;11820;48.738;9.092;2024-02-21T03:52:10;5.47;;;2.40;;
23302;SDS011;11820;48.738;9.092;2024-02-21T03:54:36;8.27;;;3.13;;
23302;SDS011;11820;48.738;9.092;2024-02-21T03:57:01;6.77;;;2.77;;
23302;SDS011;11820;48.738;9.092;2024-02-21T03:59:27;10.17;;;3.17;;
23302;SDS011;11820;48.738;9.092;2024-02-21T04:01:53;6.80;;;2.87;;
23302;SDS011;11820;48.738;9.092;2024-02-21T04:04:19;10.53;;;3.20;;
23302;SDS011;11820;48.738;9.092;2024-02-21T04:06:48;7.03;;;2.73;;
23302;SDS011;11820;48.738;9.092;2024-02-21T04:09:16;10.77;;;2.90;;
23302;SDS011;11820;48.738;9.092;2024-02-21T04:11:42;4.63;;;2.63;;
23302;SDS011;11820;48.738;9.092;2024-02-21T04:14:07;5.93;;;2.53;;
23302;SDS011;11820;48.738;9.092;2024-02-21T04:16:32;6.50;;;2.20;;
23302;SDS011;11820;48.738;9.092;2024-02-21T04:18:59;6.37;;;2.77;;
23302;SDS011;11820;48.738;9.092;2024-02-21T04:21:25;8.83;;;3.03;;
23302;SDS011;11820;48.738;9.092;2024-02-21T04:23:50;7.37;;;2.70;;
23302;SDS011;11820;48.738;9.092;2024-02-21T04:26:15;10.03;;;2.47;;
23302;SDS011;11820;48.738;9.092;2024-02-21T04:28:40;6.27;;;2.50;;
23302;SDS011;11820;48.738;9.092;2024-02-21T04:31:06;7.57;;;2.77;;
23302;SDS011;11820;48.738;9.092;2024-02-21T04:33:31;8.20;;;2.67;;
23302;SDS011;11820;48.738;9.092;2024-02-21T04:35:57;6.07;;;2.50;;
23302;SDS011;11820;48.738;9.092;2024-02-21T04:38:23;8.77;;;2.53;;
23302;SDS011;11820;48.738;9.092;2024-02-21T04:40:49;9.47;;;2.37;;
23302;SDS011;11820;48.738;9.092;2024-02-21T04:43:14;7.23;;;2.40;;
23302;SDS011;11820;48.738;9.092;2024-02-21T04:45:39;6.80;;;2.50;;
23302;SDS011;11820;48.738;9.092;2024-02-21T04:48:04;6.57;;;2.37;;
23302;SDS011;11820;48.738;9.092;2024-02-21T04:50:30;5.63;;;2.33;;
23302;SDS011;11820;48.738;9.092;2024-02-21T04:52:55;3.97;;;2.20;;
23302;SDS011;11820;48.738;9.092;2024-02-21T04:55:20;3.30;;;2.47;;
23302;SDS011;11820;48.738;9.092;2024-02-21T04:57:46;7.17;;;2.80;;
23302;SDS011;11820;48.738;9.092;2024-02-21T05:00:11;5.80;;;2.53;;
23302;SDS011;11820;48.738;9.092;2024-02-21T05:02:37;6.53;;;2.50;;
23302;SDS011;11820;48.738;9.092;2024-02-21T05:05:02;7.63;;;2.13;;
23302;SDS011;11820;48.738;9.092;2024-02-21T05:07:28;5.37;;;2.70;;
23302;SDS011;11820;48.738;9.092;2024-02-21T05:09:53;11.17;;;2.63;;
23302;SDS011;11820;48.738;9.092;2024-02-21T05:12:18;5.47;;;2.53;;
23302;SDS011;11820;48.738;9.092;2024-02-21T05:14:43;5.37;;;2.20;;
23302;SDS011;11820;48.738;9.092;2024-02-21T05:17:09;6.33;;;2.50;;
23302;SDS011;11820;48.738;9.092;2024-02-21T05:19:34;5.67;;;2.40;;
23302;SDS011;11820;48.738;9.092;2024-02-21T05:21:59;7.40;;;2.50;;
23302;SDS011;11820;48.738;9.092;2024-02-21T05:24:25;11.13;;;2.53;;
23302;SDS011;11820;48.738;9.092;2024-02-21T05:26:50;3.73;;;2.13;;
23302;SDS011;11820;48.738;9.092;2024-02-21T05:29:16;5.43;;;2.83;;
23302;SDS011;11820;48.738;9.092;2024-02-21T05:34:16;9.33;;;3.17;;
23302;SDS011;11820;48.738;9.092;2024-02-21T05:36:42;6.80;;;2.53;;
23302;SDS011;11820;48.738;9.092;2024-02-21T05:39:07;10.03;;;2.67;;
23302;SDS011;11820;48.738;9.092;2024-02-21T05:41:32;7.80;;;2.70;;
23302;SDS011;11820;48.738;9.092;2024-02-21T05:43:57;5.37;;;2.07;;
23302;SDS011;11820;48.738;9.092;2024-02-21T05:46:23;7.57;;;2.30;;
23302;SDS011;11820;48.738;9.092;2024-02-21T05:48:48;6.90;;;2.40;;
23302;SDS011;11820;48.738;9.092;2024-02-21T05:51:13;6.37;;;2.30;;
23302;SDS011;11820;48.738;9.092;2024-02-21T05:53:39;7.93;;;2.30;;
23302;SDS011;11820;48.738;9.092;2024-02-21T05:56:09;12.33;;;2.70;;
23302;SDS011;11820;48.738;9.092;2024-02-21T05:58:35;5.13;;;2.17;;
23302;SDS011;11820;48.738;9.092;2024-02-21T06:01:01;5.70;;;2.30;;
23302;SDS011;11820;48.738;9.092;2024-02-21T06:03:28;7.17;;;2.50;;
23302;SDS011;11820;48.738;9.092;2024-02-21T06:05:54;4.83;;;2.50;;
23302;SDS011;11820;48.738;9.092;2024-02-21T06:08:19;6.33;;;2.93;;
23302;SDS011;11820;48.738;9.092;2024-02-21T06:10:45;6.97;;;2.80;;
23302;SDS011;11820;48.738;9.092;2024-02-21T06:13:10;5.80;;;2.20;;
23302;SDS011;11820;48.738;9.092;2024-02-21T06:15:36;6.37;;;2.70;;
23302;SDS011;11820;48.738;9.092;2024-02-21T06:18:01;9.90;;;2.60;;
23302;SDS011;11820;48.738;9.092;2024-02-21T06:20:26;6.53;;;2.03;;
23302;SDS011;11820;48.738;9.092;2024-02-21T06:22:53;5.10;;;2.50;;
23302;SDS011;11820;48.738;9.092;2024-02-21T06:25:20;7.70;;;2.47;;
23302;SDS011;11820;48.738;9.092;2024-02-21T06:27:45;5.47;;;2.07;;
23302;SDS011;11820;48.738;9.092;2024-02-21T06:30:11;5.47;;;2.07;;
23302;SDS011;11820;48.738;9.092;2024-02-21T06:32:36;6.60;;;2.47;;
23302;SDS011;11820;48.738;9.092;2024-02-21T06:35:03;7.17;;;2.23;;
23302;SDS011;11820;48.738;9.092;2024-02-21T06:37:29;6.70;;;2.43;;
23302;SDS011;11820;48.738;9.092;2024-02-21T06:39:55;5.77;;;2.17;;
23302;SDS011;11820;48.738;9.092;2024-02-21T06:42:20;6.47;;;2.20;;
23302;SDS011;11820;48.738;9.092;2024-02-21T06:44:46;6.27;;;2.50;;
23302;SDS011;11820;48.738;9.092;2024-02-21T06:47:12;4.97;;;1.90;;
23302;SDS011;11820;48.738;9.092;2024-02-21T06:49:37;6.57;;;2.50;;
23302;SDS011;11820;48.738;9.092;2024-02-21T06:52:03;5.23;;;2.30;;
23302;SDS011;11820;48.738;9.092;2024-02-21T06:54:30;9.00;;;2.93;;
23302;SDS011;11820;48.738;9.092;2024-02-21T06:56:55;3.40;;;1.77;;
23302;SDS011;11820;48.738;9.092;2024-02-21T06:59:20;4.93;;;2.00;;
23302;SDS011;11820;48.738;9.092;2024-02-21T07:01:47;8.70;;;2.40;;
23302;SDS011;11820;48.738;9.092;2024-02-21T07:04:14;5.40;;;2.53;;
23302;SDS011;11820;48.738;9.092;2024-02-21T07:06:39;7.00;;;2.83;;
23302;SDS011;11820;48.738;9.092;2024-02-21T07:09:05;8.17;;;2.40;;
23302;SDS011;11820;48.738;9.092;2024-02-21T07:11:30;6.40;;;1.97;;
23302;SDS011;11820;48.738;9.092;2024-02-21T07:13:56;6.13;;;2.10;;
23302;SDS011;11820;48.738;9.092;2024-02-21T07:16:21;8.97;;;2.43;;
23302;SDS011;11820;48.738;9.092;2024-02-21T07:18:46;11.93;;;3.80;;
23302;SDS011;11820;48.738;9.092;2024-02-21T07:21:11;6.10;;;2.20;;
23302;SDS011;11820;48.738;9.092;2024-02-21T07:23:40;5.93;;;2.50;;
23302;SDS011;11820;48.738;9.092;2024-02-21T07:26:06;6.97;;;2.10;;
23302;SDS011;11820;48.738;9.092;2024-02-21T07:28:32;5.47;;;2.80;;
23302;SDS011;11820;48.738;9.092;2024-02-21T07:30:58;5.87;;;2.73;;
23302;SDS011;11820;48.738;9.092;2024-02-21T07:33:24;5.03;;;2.47;;
23302;SDS011;11820;48.738;9.092;2024-02-21T07:35:49;12.67;;;3.33;;
23302;SDS011;11820;48.738;9.092;2024-02-21T07:38:15;7.43;;;2.37;;
23302;SDS011;11820;48.738;9.092;2024-02-21T07:40:43;5.37;;;2.20;;
23302;SDS011;11820;48.738;9.092;2024-02-21T07:43:09;7.37;;;2.70;;
23302;SDS011;11820;48.738;9.092;2024-02-21T07:45:35;9.27;;;2.50;;
23302;SDS011;11820;48.738;9.092;2024-02-21T07:48:00;6.40;;;2.47;;
23302;SDS011;11820;48.738;9.092;2024-02-21T07:50:26;4.60;;;2.30;;
23302;SDS011;11820;48.738;9.092;2024-02-21T07:52:51;7.87;;;2.47;;
23302;SDS011;11820;48.738;9.092;2024-02-21T07:55:17;6.60;;;2.17;;
23302;SDS011;11820;48.738;9.092;2024-02-21T07:57:42;9.07;;;2.60;;
23302;SDS011;11820;48.738;9.092;2024-02-21T08:00:07;7.13;;;2.17;;
23302;SDS011;11820;48.738;9.092;2024-02-21T08:02:42;4.33;;;1.83;;
23302;SDS011;11820;48.738;9.092;2024-02-21T08:05:08;6.50;;;2.03;;
23302;SDS011;11820;48.738;9.092;2024-02-21T08:07:34;5.83;;;2.13;;
23302;SDS011;11820;48.738;9.092;2024-02-21T08:09:59;6.53;;;2.40;;
23302;SDS011;11820;48.738;9.092;2024-02-21T08:12:25;4.70;;;1.83;;
23302;SDS011;11820;48.738;9.092;2024-02-21T08:14:50;6.33;;;2.17;;
23302;SDS011;11820;48.738;9.092;2024-02-21T08:17:15;4.13;;;1.97;;
23302;SDS011;11820;48.738;9.092;2024-02-21T08:19:40;8.93;;;2.33;;
23302;SDS011;11820;48.738;9.092;2024-02-21T08:22:06;5.53;;;2.47;;
23302;SDS011;11820;48.738;9.092;2024-02-21T08:24:31;10.87;;;2.30;;
23302;SDS011;11820;48.738;9.092;2024-02-21T08:26:57;8.03;;;2.53;;
23302;SDS011;11820;48.738;9.092;2024-02-21T08:29:22;9.47;;;2.30;;
23302;SDS011;11820;48.738;9.092;2024-02-21T08:31:48;4.30;;;1.73;;
23302;SDS011;11820;48.738;9.092;2024-02-21T08:34:13;6.67;;;2.33;;
23302;SDS011;11820;48.738;9.092;2024-02-21T08:36:38;6.87;;;2.10;;
23302;SDS011;11820;48.738;9.092;2024-02-21T08:39:04;4.57;;;1.90;;
23302;SDS011;11820;48.738;9.092;2024-02-21T08:41:33;5.60;;;2.47;;
23302;SDS011;11820;48.738;9.092;2024-02-21T08:43:59;5.30;;;2.53;;
23302;SDS011;11820;48.738;9.092;2024-02-21T08:46:24;6.50;;;2.23;;
23302;SDS011;11820;48.738;9.092;2024-02-21T08:48:50;6.97;;;2.60;;
23302;SDS011;11820;48.738;9.092;2024-02-21T08:51:16;6.00;;;2.60;;
23302;SDS011;11820;48.738;9.092;2024-02-21T08:53:43;7.63;;;2.30;;
23302;SDS011;11820;48.738;9.092;2024-02-21T08:56:09;4.80;;;2.07;;
23302;SDS011;11820;48.738;9.092;2024-02-21T08:58:34;7.80;;;2.50;;
23302;SDS011;11820;48.738;9.092;2024-02-21T09:01:01;7.63;;;2.40;;
23302;SDS011;11820;48.738;9.092;2024-02-21T09:03:28;5.07;;;2.17;;
23302;SDS011;11820;48.738;9.092;2024-02-21T09:05:55;8.97;;;2.50;;
23302;SDS011;11820;48.738;9.092;2024-02-21T09:08:20;7.17;;;2.43;;
23302;SDS011;11820;48.738;9.092;2024-02-21T09:10:47;6.47;;;2.90;;
23302;SDS011;11820;48.738;9.092;2024-02-21T09:13:12;6.23;;;2.47;;
23302;SDS011;11820;48.738;9.092;2024-02-21T09:15:37;5.47;;;2.73;;
23302;SDS011;11820;48.738;9.092;2024-02-21T09:18:03;9.00;;;2.40;;
23302;SDS011;11820;48.738;9.092;2024-02-21T09:20:28;7.20;;;2.53;;
23302;SDS011;11820;48.738;9.092;2024-02-21T09:22:54;8.83;;;2.70;;
23302;SDS011;11820;48.738;9.092;2024-02-21T09:25:19;6.13;;;2.50;;
23302;SDS011;11820;48.738;9.092;2024-02-21T09:27:45;8.40;;;2.57;;
23302;SDS011;11820;48.738;9.092;2024-02-21T09:30:10;10.23;;;2.53;;
23302;SDS011;11820;48.738;9.092;2024-02-21T09:32:37;7.20;;;2.13;;
23302;SDS011;11820;48.738;9.092;2024-02-21T09:35:03;7.30;;;2.43;;
23302;SDS011;11820;48.738;9.092;2024-02-21T09:37:30;5.00;;;1.87;;
23302;SDS011;11820;48.738;9.092;2024-02-21T09:39:55;8.00;;;2.07;;
23302;SDS011;11820;48.738;9.092;2024-02-21T09:42:21;4.00;;;1.90;;
23302;SDS011;11820;48.738;9.092;2024-02-21T09:44:47;7.70;;;2.67;;
23302;SDS011;11820;48.738;9.092;2024-02-21T09:47:17;6.30;;;1.90;;
23302;SDS011;11820;48.738;9.092;2024-02-21T09:49:47;4.63;;;1.67;;
23302;SDS011;11820;48.738;9.092;2024-02-21T09:52:12;4.80;;;1.70;;
23302;SDS011;11820;48.738;9.092;2024-02-21T09:54:40;6.30;;;2.20;;
23302;SDS011;11820;48.738;9.092;2024-02-21T09:57:09;7.73;;;2.37;;
23302;SDS011;11820;48.738;9.092;2024-02-21T09:59:35;9.10;;;2.00;;
23302;SDS011;11820;48.738;9.092;2024-02-21T10:02:00;7.33;;;2.47;;
23302;SDS011;11820;48.738;9.092;2024-02-21T10:04:26;6.40;;;2.47;;
23302;SDS011;11820;48.738;9.092;2024-02-21T10:06:53;4.77;;;1.93;;
23302;SDS011;11820;48.738;9.092;2024-02-21T10:11:48;7.17;;;2.00;;
23302;SDS011;11820;48.738;9.092;2024-02-21T10:14:14;6.90;;;2.13;;
23302;SDS011;11820;48.738;9.092;2024-02-21T10:16:40;7.07;;;1.90;;
23302;SDS011;11820;48.738;9.092;2024-02-21T10:19:06;3.83;;;1.70;;
23302;SDS011;11820;48.738;9.092;2024-02-21T10:21:31;4.13;;;1.53;;
23302;SDS011;11820;48.738;9.092;2024-02-21T10:23:57;5.13;;;1.83;;
23302;SDS011;11820;48.738;9.092;2024-02-21T10:26:23;7.27;;;1.80;;
23302;SDS011;11820;48.738;9.092;2024-02-21T10:28:48;5.10;;;1.70;;
23302;SDS011;11820;48.738;9.092;2024-02-21T10:33:58;6.17;;;2.20;;
23302;SDS011;11820;48.738;9.092;2024-02-21T10:36:30;4.80;;;1.70;;
23302;SDS011;11820;48.738;9.092;2024-02-21T10:38:56;4.17;;;1.97;;
23302;SDS011;11820;48.738;9.092;2024-02-21T10:41:22;6.23;;;2.07;;
23302;SDS011;11820;48.738;9.092;2024-02-21T10:43:51;6.73;;;2.33;;
23302;SDS011;11820;48.738;9.092;2024-02-21T10:46:21;3.37;;;1.70;;
23302;SDS011;11820;48.738;9.092;2024-02-21T10:48:48;5.40;;;2.67;;
23302;SDS011;11820;48.738;9.092;2024-02-21T10:51:27;4.40;;;1.87;;
23302;SDS011;11820;48.738;9.092;2024-02-21T10:56:34;5.50;;;1.90;;
23302;SDS011;11820;48.738;9.092;2024-02-21T10:59:02;5.80;;;1.97;;
23302;SDS011;11820;48.738;9.092;2024-02-21T11:01:29;7.23;;;2.37;;
23302;SDS011;11820;48.738;9.092;2024-02-21T11:03:58;5.13;;;1.80;;
23302;SDS011;11820;48.738;9.092;2024-02-21T11:06:26;5.47;;;1.60;;
23302;SDS011;11820;48.738;9.092;2024-02-21T11:14:10;4.07;;;2.00;;
23302;SDS011;11820;48.738;9.092;2024-02-21T11:16:42;5.27;;;1.77;;
23302;SDS011;11820;48.738;9.092;2024-02-21T11:19:08;5.27;;;1.90;;
23302;SDS011;11820;48.738;9.092;2024-02-21T11:21:57;2.93;;;1.53;;
23302;SDS011;11820;48.738;9.092;2024-02-21T11:24:30;6.67;;;1.83;;
23302;SDS011;11820;48.738;9.092;2024-02-21T11:29:56;5.27;;;1.53;;
23302;SDS011;11820;48.738;9.092;2024-02-21T11:32:23;2.37;;;1.27;;
23302;SDS011;11820;48.738;9.092;2024-02-21T11:34:56;3.27;;;1.50;;
23302;SDS011;11820;48.738;9.092;2024-02-21T11:37:33;2.07;;;1.20;;
23302;SDS011;11820;48.738;9.092;2024-02-21T11:39:59;3.40;;;1.57;;
23302;SDS011;11820;48.738;9.092;2024-02-21T11:42:28;4.30;;;1.50;;
23302;SDS011;11820;48.738;9.092;2024-02-21T11:44:55;3.70;;;1.77;;
23302;SDS011;11820;48.738;9.092;2024-02-21T11:47:24;5.00;;;1.50;;
23302;SDS011;11820;48.738;9.092;2024-02-21T11:49:50;2.47;;;1.27;;
23302;SDS011;11820;48.738;9.092;2024-02-21T11:52:18;7.67;;;1.90;;
23302;SDS011;11820;48.738;9.092;2024-02-21T11:54:49;2.27;;;1.17;;
23302;SDS011;11820;48.738;9.092;2024-02-21T11:57:16;1.60;;;1.20;;
23302;SDS011;11820;48.738;9.092;2024-02-21T11:59:42;3.17;;;1.40;;
23302;SDS011;11820;48.738;9.092;2024-02-21T12:02:09;3.30;;;1.37;;
23302;SDS011;11820;48.738;9.092;2024-02-21T12:04:35;6.57;;;1.27;;
23302;SDS011;11820;48.738;9.092;2024-02-21T12:07:01;2.67;;;1.00;;
23302;SDS011;11820;48.738;9.092;2024-02-21T12:09:28;3.43;;;1.43;;
23302;SDS011;11820;48.738;9.092;2024-02-21T12:11:57;2.90;;;1.07;;
23302;SDS011;11820;48.738;9.092;2024-02-21T12:14:24;1.90;;;1.30;;
23302;SDS011;11820;48.738;9.092;2024-02-21T12:16:50;2.70;;;1.87;;
23302;SDS011;11820;48.738;9.092;2024-02-21T12:19:15;2.97;;;1.53;;
23302;SDS011;11820;48.738;9.092;2024-02-21T12:21:42;4.90;;;1.40;;
23302;SDS011;11820;48.738;9.092;2024-02-21T12:24:23;5.03;;;1.53;;
23302;SDS011;11820;48.738;9.092;2024-02-21T12:26:50;2.93;;;1.03;;
23302;SDS011;11820;48.738;9.092;2024-02-21T12:29:17;3.73;;;1.57;;
23302;SDS011;11820;48.738;9.092;2024-02-21T12:31:42;3.33;;;1.37;;
23302;SDS011;11820;48.738;9.092;2024-02-21T12:34:08;3.43;;;1.20;;
23302;SDS011;11820;48.738;9.092;2024-02-21T12:36:35;2.83;;;1.37;;
23302;SDS011;11820;48.738;9.092;2024-02-21T12:39:05;4.60;;;1.37;;
23302;SDS011;11820;48.738;9.092;2024-02-21T12:41:31;2.47;;;1.23;;
23302;SDS011;11820;48.738;9.092;2024-02-21T12:43:58;5.17;;;1.17;;
23302;SDS011;11820;48.738;9.092;2024-02-21T12:46:23;2.93;;;1.50;;
23302;SDS011;11820;48.738;9.092;2024-02-21T12:48:49;2.40;;;1.30;;
23302;SDS011;11820;48.738;9.092;2024-02-21T12:51:15;2.70;;;1.20;;
23302;SDS011;11820;48.738;9.092;2024-02-21T12:53:40;4.23;;;1.47;;
23302;SDS011;11820;48.738;9.092;2024-02-21T12:56:06;1.87;;;1.00;;
23302;SDS011;11820;48.738;9.092;2024-02-21T12:58:32;3.60;;;1.10;;
23302;SDS011;11820;48.738;9.092;2024-02-21T13:00:58;1.33;;;0.73;;
23302;SDS011;11820;48.738;9.092;2024-02-21T13:03:23;2.83;;;1.10;;
23302;SDS011;11820;48.738;9.092;2024-02-21T13:05:48;2.53;;;1.30;;
23302;SDS011;11820;48.738;9.092;2024-02-21T13:08:14;1.93;;;0.93;;
23302;SDS011;11820;48.738;9.092;2024-02-21T13:10:39;2.63;;;1.07;;
23302;SDS011;11820;48.738;9.092;2024-02-21T13:13:04;1.97;;;0.90;;
23302;SDS011;11820;48.738;9.092;2024-02-21T13:15:30;2.70;;;1.60;;
23302;SDS011;11820;48.738;9.092;2024-02-21T13:17:56;5.17;;;2.00;;
23302;SDS011;11820;48.738;9.092;2024-02-21T13:20:22;4.30;;;1.43;;
23302;SDS011;11820;48.738;9.092;2024-02-21T13:22:48;2.97;;;0.90;;
23302;SDS011;11820;48.738;9.092;2024-02-21T13:25:13;1.93;;;1.10;;
23302;SDS011;11820;48.738;9.092;2024-02-21T13:27:43;2.47;;;1.00;;
23302;SDS011;11820;48.738;9.092;2024-02-21T13:30:09;3.90;;;1.00;;
23302;SDS011;11820;48.738;9.092;2024-02-21T13:32:35;2.63;;;1.00;;
23302;SDS011;11820;48.738;9.092;2024-02-21T13:35:00;2.57;;;1.10;;
23302;SDS011;11820;48.738;9.092;2024-02-21T13:37:26;4.57;;;1.23;;
23302;SDS011;11820;48.738;9.092;2024-02-21T13:39:52;2.77;;;1.13;;
23302;SDS011;11820;48.738;9.092;2024-02-21T13:42:17;2.60;;;1.10;;
23302;SDS011;11820;48.738;9.092;2024-02-21T13:44:44;1.70;;;0.93;;
23302;SDS011;11820;48.738;9.092;2024-02-21T13:47:09;2.40;;;1.00;;
23302;SDS011;11820;48.738;9.092;2024-02-21T13:49:36;2.13;;;1.00;;
23302;SDS011;11820;48.738;9.092;2024-02-21T13:52:01;2.07;;;1.17;;
23302;SDS011;11820;48.738;9.092;2024-02-21T13:54:27;3.30;;;1.10;;
23302;SDS011;11820;48.738;9.092;2024-02-21T13:56:52;3.07;;;1.10;;
23302;SDS011;11820;48.738;9.092;2024-02-21T13:59:17;2.33;;;0.87;;
23302;SDS011;11820;48.738;9.092;2024-02-21T14:01:43;2.47;;;1.00;;
23302;SDS011;11820;48.738;9.092;2024-02-21T14:04:08;3.43;;;1.33;;
23302;SDS011;11820;48.738;9.092;2024-02-21T14:06:33;2.73;;;0.80;;
23302;SDS011;11820;48.738;9.092;2024-02-21T14:08:59;2.10;;;0.70;;
23302;SDS011;11820;48.738;9.092;2024-02-21T14:11:24;3.30;;;1.30;;
23302;SDS011;11820;48.738;9.092;2024-02-21T14:13:51;3.90;;;1.03;;
23302;SDS011;11820;48.738;9.092;2024-02-21T14:16:17;2.33;;;1.00;;
23302;SDS011;11820;48.738;9.092;2024-02-21T14:18:43;1.70;;;0.97;;
23302;SDS011;11820;48.738;9.092;2024-02-21T14:21:08;1.50;;;0.80;;
23302;SDS011;11820;48.738;9.092;2024-02-21T14:23:37;1.97;;;0.90;;
23302;SDS011;11820;48.738;9.092;2024-02-21T14:26:03;4.43;;;1.00;;
23302;SDS011;11820;48.738;9.092;2024-02-21T14:28:29;1.50;;;0.97;;
23302;SDS011;11820;48.738;9.092;2024-02-21T14:30:55;3.07;;;1.07;;
23302;SDS011;11820;48.738;9.092;2024-02-21T14:33:22;2.93;;;1.17;;
23302;SDS011;11820;48.738;9.092;2024-02-21T14:35:49;1.57;;;1.00;;
23302;SDS011;11820;48.738;9.092;2024-02-21T14:38:14;2.30;;;1.03;;
23302;SDS011;11820;48.738;9.092;2024-02-21T14:40:39;4.43;;;1.00;;
23302;SDS011;11820;48.738;9.092;2024-02-21T14:43:05;3.53;;;1.13;;
23302;SDS011;11820;48.738;9.092;2024-02-21T14:45:30;2.47;;;1.00;;
23302;SDS011;11820;48.738;9.092;2024-02-21T14:47:56;2.67;;;1.10;;
23302;SDS011;11820;48.738;9.092;2024-02-21T14:50:21;1.27;;;0.70;;
23302;SDS011;11820;48.738;9.092;2024-02-21T14:52:48;4.33;;;1.10;;
23302;SDS011;11820;48.738;9.092;2024-02-21T14:55:13;2.77;;;0.90;;
23302;SDS011;11820;48.738;9.092;2024-02-21T14:57:39;2.00;;;0.97;;